New Galilee, PA (16141)

6:34 PM EST on December 07, 2016 (GMT -0500)
Pinehurst Estates | | Change Station

Elev 945 ft 40.79 °N, 80.42 °W | Updated 7 seconds ago

Scattered Clouds
Scattered Clouds
33.1 °F
Feels Like 33 °F
N
0.0
Wind Variable Wind from South

Today
High -- | Low -- °F
--% Chance of Precip.
Yesterday
High -- | Low -- °F
Precip. -- in
Pressure 30.14 in
Visibility 10.0 miles
Clouds Scattered Clouds 11000 ft
Windchill 33 °F
Dew Point 30 °F
Humidity 89%
Rainfall in
Snow Depth Not available.
7:32 AM 4:53 PM
First Quarter, 57% visible
METAR KUCP 072156Z AUTO 23004KT 10SM SCT110 02/M06 A3006 RMK AO2 SLP204 T00221056 FZRANO $
Pressure 30.14 in
Visibility 10.0 miles
Clouds Scattered Clouds 11000 ft
Windchill 33 °F
Dew Point 30 °F
Humidity 89%
Rainfall in
Snow Depth Not available.
7:32 AM 4:53 PM
First Quarter, 57% visible
METAR KUCP 072156Z AUTO 23004KT 10SM SCT110 02/M06 A3006 RMK AO2 SLP204 T00221056 FZRANO $

10-Day Weather Forecast

Almanac

Astronomy

Dec. 07, 2016 Rise Set
Actual Time
Civil Twilight
Nautical Twilight
Astronomical Twilight
Moon
Length of Visible Light
Length of Day
Tomorrow will be .
, % of the Moon is Illuminated

Today's Extremes

State Highs State Lows

Community

WunderPhotos

Upload Photos

1,956,219 photos uploaded!

WunderBlog® & News

Nearby

Air Quality

  Air Quality AQ Index Pollutant
Not available.

Snow Depth

Station Depth Elevation

Earthquake Activity

City Distance Mag. Time & Date
Minimum magnitude displayed is 2.5.

Coastal Water Temperatures

Place Temperature

Stations

Nearby Weather Stations

Station Location Temp. Windchill Dew Point Humidity Wind Precip. Elev Updated Type
                   

Watches & Warnings

There are currently no watches in effect.